Time;durP1;ratioP1;P1;durP2;ratioP2;P2;SDS_P1;SDS_P2;PMS_P1;PMS_P2;Temp;Humidity;BMP_temperature;BMP_pressure;BME280_temperature;BME280_humidity;BME280_pressure;Samples;Min_cycle;Max_cycle;Signal;HPM_P1;HPM_P2
2023/10/18 00:01:06;;;;;;;21.25;12.95;;;;;;;5.19;100.00;101278.13;5052671;28;20484;-59
2023/10/18 00:03:36;;;;;;;20.80;13.65;;;;;;;5.15;100.00;101268.72;5052645;28;20068;-59
2023/10/18 00:06:15;;;;;;;21.88;14.05;;;;;;;5.14;100.00;101274.84;5052763;28;20068;-58
2023/10/18 00:08:44;;;;;;;21.23;13.40;;;;;;;5.11;100.00;101268.88;5051266;28;20076;-59
2023/10/18 00:11:15;;;;;;;19.77;13.52;;;;;;;5.10;100.00;101268.03;5052643;28;20049;-59
2023/10/18 00:13:44;;;;;;;19.63;13.60;;;;;;;5.09;100.00;101261.13;5052777;28;20537;-59
2023/10/18 00:16:16;;;;;;;19.92;13.73;;;;;;;5.06;100.00;101264.69;5052429;28;20044;-59
2023/10/18 00:18:45;;;;;;;21.92;13.57;;;;;;;5.03;100.00;101263.94;5052438;28;20055;-60
2023/10/18 00:21:13;;;;;;;21.23;13.02;;;;;;;5.02;100.00;101257.88;5052486;28;20091;-59
2023/10/18 00:23:44;;;;;;;25.15;13.48;;;;;;;5.00;100.00;101259.66;5050265;28;20828;-59
2023/10/18 00:26:13;;;;;;;22.35;14.30;;;;;;;4.99;100.00;101251.91;5047965;28;20128;-58
2023/10/18 00:28:41;;;;;;;22.70;14.10;;;;;;;4.96;100.00;101239.81;5052087;28;20045;-60
2023/10/18 00:31:12;;;;;;;19.42;13.32;;;;;;;4.97;100.00;101238.94;5050848;28;20139;-59
2023/10/18 00:33:41;;;;;;;20.42;13.30;;;;;;;4.93;100.00;101244.31;5050475;28;20049;-59
2023/10/18 00:36:11;;;;;;;20.75;13.18;;;;;;;4.95;100.00;101245.97;5048618;28;20573;-59
2023/10/18 00:38:40;;;;;;;23.83;13.95;;;;;;;4.89;100.00;101240.97;5051166;28;20142;-59
2023/10/18 00:41:14;;;;;;;21.67;14.10;;;;;;;4.86;100.00;101241.91;5052138;28;20042;-59
2023/10/18 00:43:45;;;;;;;22.73;13.80;;;;;;;4.85;100.00;101244.56;5052072;28;20400;-60
2023/10/18 00:46:15;;;;;;;20.58;13.07;;;;;;;4.84;100.00;101251.56;5051966;28;20049;-60
2023/10/18 00:48:45;;;;;;;21.77;14.00;;;;;;;4.84;100.00;101243.75;5051666;28;20052;-60
2023/10/18 00:51:17;;;;;;;20.73;13.90;;;;;;;4.85;100.00;101236.75;5051832;28;20048;-60
2023/10/18 00:53:51;;;;;;;21.27;13.60;;;;;;;4.83;100.00;101228.16;5051807;28;20120;-59
2023/10/18 00:56:20;;;;;;;19.30;13.52;;;;;;;4.84;100.00;101233.31;5051777;28;20041;-59
2023/10/18 00:58:49;;;;;;;20.90;13.27;;;;;;;4.86;100.00;101233.25;5051676;28;20061;-60
2023/10/18 01:01:17;;;;;;;21.15;13.63;;;;;;;4.83;100.00;101229.00;5051826;28;20087;-59
2023/10/18 01:03:49;;;;;;;21.38;14.30;;;;;;;4.82;100.00;101222.06;5048988;28;20063;-60
2023/10/18 01:06:24;;;;;;;21.73;13.55;;;;;;;4.79;100.00;101224.81;5046657;28;20389;-59
2023/10/18 01:08:52;;;;;;;19.02;12.25;;;;;;;4.78;100.00;101224.84;5046974;28;20084;-60
2023/10/18 01:11:23;;;;;;;23.33;13.40;;;;;;;4.81;100.00;101220.38;5049637;28;20049;-59
2023/10/18 01:13:55;;;;;;;19.85;13.25;;;;;;;4.81;100.00;101224.75;5050351;28;20456;-59
2023/10/18 01:16:26;;;;;;;21.08;13.70;;;;;;;4.81;100.00;101222.13;5051625;28;20060;-58
2023/10/18 01:18:55;;;;;;;21.98;13.15;;;;;;;4.79;100.00;101221.34;5051633;28;20044;-60
2023/10/18 01:21:25;;;;;;;20.15;13.02;;;;;;;4.77;100.00;101223.16;5051571;28;20053;-61
2023/10/18 01:23:59;;;;;;;22.42;14.27;;;;;;;4.72;100.00;101221.56;5051048;28;20056;-59
2023/10/18 01:26:37;;;;;;;20.98;13.00;;;;;;;4.72;100.00;101211.13;5051512;28;20074;-61
2023/10/18 01:29:08;;;;;;;21.05;12.45;;;;;;;4.77;100.00;101203.13;5051525;28;20049;-60
2023/10/18 01:31:39;;;;;;;19.17;12.90;;;;;;;4.71;100.00;101204.22;5050343;28;20045;-59
2023/10/18 01:34:08;;;;;;;20.30;13.10;;;;;;;4.76;100.00;101200.59;5041748;28;20157;-60
2023/10/18 01:36:39;;;;;;;20.30;12.90;;;;;;;4.69;100.00;101189.53;5048180;28;20139;-60
2023/10/18 01:39:18;;;;;;;20.95;12.95;;;;;;;4.70;100.00;101193.84;5051427;28;20772;-59
2023/10/18 01:41:55;;;;;;;18.95;11.75;;;;;;;4.72;100.00;101186.84;5051326;28;20052;-59
2023/10/18 01:44:33;;;;;;;19.75;12.98;;;;;;;4.71;100.00;101179.91;5051269;28;20045;-59
2023/10/18 01:47:07;;;;;;;20.70;12.80;;;;;;;4.69;100.00;101185.19;5048806;28;20044;-59
2023/10/18 01:49:43;;;;;;;20.15;12.73;;;;;;;4.68;100.00;101186.09;5050441;28;20045;-60
2023/10/18 01:52:17;;;;;;;19.27;12.68;;;;;;;4.70;100.00;101191.25;5054996;28;20373;-60
2023/10/18 01:54:48;;;;;;;19.10;12.30;;;;;;;4.72;100.00;101177.25;5055082;28;20045;-60
2023/10/18 01:57:19;;;;;;;22.83;12.60;;;;;;;4.68;100.00;101182.63;5055022;28;20508;-59
2023/10/18 01:59:50;;;;;;;18.70;12.43;;;;;;;4.65;100.00;101181.00;5055176;28;20389;-60
2023/10/18 02:02:23;;;;;;;20.65;12.75;;;;;;;4.59;100.00;101178.59;5055052;28;20099;-59
2023/10/18 02:04:57;;;;;;;19.23;13.13;;;;;;;4.62;100.00;101181.09;5055213;28;20112;-59
2023/10/18 02:07:25;;;;;;;19.33;12.02;;;;;;;4.60;100.00;101172.47;5055001;28;20487;-59
2023/10/18 02:09:57;;;;;;;20.33;13.18;;;;;;;4.56;100.00;101169.13;5054709;28;20048;-60
2023/10/18 02:12:31;;;;;;;23.60;13.77;;;;;;;4.54;100.00;101165.72;5054861;28;20044;-59
2023/10/18 02:15:02;;;;;;;20.00;12.77;;;;;;;4.55;100.00;101163.97;5055122;28;20045;-60
2023/10/18 02:17:33;;;;;;;20.77;12.85;;;;;;;4.56;100.00;101163.06;5054731;28;20045;-59
2023/10/18 02:20:01;;;;;;;20.17;12.57;;;;;;;4.53;100.00;101157.97;5054853;28;20044;-59
2023/10/18 02:22:31;;;;;;;19.95;13.23;;;;;;;4.52;100.00;101157.09;5054615;28;20048;-59
2023/10/18 02:25:02;;;;;;;24.08;13.50;;;;;;;4.54;100.00;101157.03;5054540;28;20060;-59
2023/10/18 02:27:36;;;;;;;21.75;13.68;;;;;;;4.56;100.00;101166.50;5054661;28;20045;-60
2023/10/18 02:30:11;;;;;;;20.50;13.45;;;;;;;4.53;100.00;101158.81;5037048;28;20068;-59
2023/10/18 02:32:41;;;;;;;21.42;12.68;;;;;;;4.46;100.00;101159.94;5052980;28;20052;-60
2023/10/18 02:35:09;;;;;;;19.30;12.90;;;;;;;4.46;100.00;101146.03;5054362;28;20092;-60
2023/10/18 02:37:37;;;;;;;19.75;13.35;;;;;;;4.43;100.00;101151.38;5054767;28;20072;-58
2023/10/18 02:40:09;;;;;;;21.60;13.70;;;;;;;4.39;100.00;101146.28;5054317;28;20484;-57
2023/10/18 02:42:40;;;;;;;20.83;12.48;;;;;;;4.44;100.00;101140.88;5054328;28;20079;-58
2023/10/18 02:45:17;;;;;;;20.88;13.43;;;;;;;4.42;100.00;101142.72;5054433;28;20037;-59
2023/10/18 02:47:45;;;;;;;23.45;13.82;;;;;;;4.38;100.00;101135.91;5053953;28;20057;-59
2023/10/18 02:50:14;;;;;;;22.02;13.55;;;;;;;4.42;100.00;101134.91;5054201;28;20511;-59
2023/10/18 02:52:45;;;;;;;23.40;14.73;;;;;;;4.41;100.00;101130.59;5054089;28;20106;-58
2023/10/18 02:55:17;;;;;;;21.35;13.25;;;;;;;4.42;100.00;101134.03;5054269;28;20140;-58
2023/10/18 02:57:48;;;;;;;20.42;13.85;;;;;;;4.41;100.00;101133.19;5052287;28;20361;-58
2023/10/18 03:00:17;;;;;;;20.33;13.63;;;;;;;4.37;100.00;101123.78;5050619;28;20132;-58
2023/10/18 03:02:50;;;;;;;18.07;12.67;;;;;;;4.37;100.00;101129.00;5052310;28;20049;-58
2023/10/18 03:05:20;;;;;;;19.75;13.57;;;;;;;4.36;100.00;101122.06;5054059;28;20476;-59
2023/10/18 03:07:48;;;;;;;22.15;13.88;;;;;;;4.34;100.00;101111.72;5052626;28;20056;-59
2023/10/18 03:10:19;;;;;;;20.75;14.18;;;;;;;4.34;100.00;101111.72;5050902;28;20045;-58
2023/10/18 03:12:52;;;;;;;20.20;13.25;;;;;;;4.35;100.00;101105.63;5052556;28;20045;-58
2023/10/18 03:15:24;;;;;;;23.73;13.15;;;;;;;4.33;100.00;101104.81;5053761;28;20125;-58
2023/10/18 03:17:56;;;;;;;19.90;13.57;;;;;;;4.35;100.00;101094.31;5054041;28;20122;-58
2023/10/18 03:20:24;;;;;;;21.08;13.75;;;;;;;4.37;100.00;101092.53;5052230;28;21035;-59
2023/10/18 03:22:52;;;;;;;20.85;13.88;;;;;;;4.34;100.00;101079.63;5049916;28;20048;-58
2023/10/18 03:25:26;;;;;;;21.70;14.05;;;;;;;4.35;100.00;101076.09;5052473;28;20044;-60
2023/10/18 03:28:00;;;;;;;23.70;13.80;;;;;;;4.39;100.00;101067.28;5053606;28;20056;-59
2023/10/18 03:30:44;;;;;;;24.17;13.95;;;;;;;4.36;100.00;101060.44;5053318;28;20045;-59
2023/10/18 03:33:13;;;;;;;23.75;14.18;;;;;;;4.39;100.00;101056.84;5053432;28;20407;-58
2023/10/18 03:35:43;;;;;;;23.02;14.20;;;;;;;4.36;100.00;101057.84;5053274;28;20049;-58
2023/10/18 03:38:16;;;;;;;21.05;13.48;;;;;;;4.35;100.00;101058.75;5050486;28;20068;-59
2023/10/18 03:40:48;;;;;;;23.08;14.40;;;;;;;4.38;100.00;101061.22;5050861;28;20044;-57
2023/10/18 03:43:26;;;;;;;19.95;13.32;;;;;;;4.38;100.00;101063.81;5053382;28;20388;-58
2023/10/18 03:46:13;;;;;;;20.40;12.93;;;;;;;4.34;100.00;101057.03;5051701;28;20095;-58
2023/10/18 03:48:45;;;;;;;20.13;13.38;;;;;;;4.33;100.00;101052.72;5050399;28;20057;-57
2023/10/18 03:51:23;;;;;;;19.67;12.23;;;;;;;4.28;100.00;101056.41;5049614;28;20048;-59
2023/10/18 03:53:55;;;;;;;20.23;13.20;;;;;;;4.26;100.00;101048.66;5051022;28;20064;-57
2023/10/18 03:56:25;;;;;;;19.90;12.43;;;;;;;4.25;100.00;101052.16;5052932;28;20049;-59
2023/10/18 03:59:00;;;;;;;23.45;13.88;;;;;;;4.28;100.00;101048.59;5052925;28;20041;-59
2023/10/18 04:01:35;;;;;;;20.05;13.48;;;;;;;4.28;100.00;101046.84;5052536;28;20084;-58
2023/10/18 04:04:05;;;;;;;23.35;14.00;;;;;;;4.30;100.00;101046.78;5047484;28;20048;-59
2023/10/18 04:06:35;;;;;;;19.40;13.23;;;;;;;4.29;100.00;101045.91;5047872;28;20053;-60
2023/10/18 04:09:13;;;;;;;21.45;13.65;;;;;;;4.32;100.00;101044.97;5049567;28;20059;-60
2023/10/18 04:11:47;;;;;;;19.73;13.15;;;;;;;4.31;100.00;101043.25;5052088;28;20095;-59
2023/10/18 04:14:17;;;;;;;22.38;13.35;;;;;;;4.30;100.00;101032.00;5052697;28;20119;-59
2023/10/18 04:16:47;;;;;;;20.15;13.65;;;;;;;4.28;100.00;101027.75;5052666;28;20040;-60
2023/10/18 04:19:19;;;;;;;21.13;12.80;;;;;;;4.32;100.00;101019.78;5052735;28;20060;-60
2023/10/18 04:21:52;;;;;;;;;;;;;;;4.32;100.00;101024.13;5052853;28;20099;-60
2023/10/18 04:24:21;;;;;;;19.98;13.20;;;;;;;4.29;100.00;101014.69;5052343;28;19920;-59
2023/10/18 04:26:52;;;;;;;20.00;12.63;;;;;;;4.30;100.00;101012.94;5052314;28;20075;-59
2023/10/18 04:29:33;;;;;;;21.73;12.75;;;;;;;4.28;100.00;101001.72;5052659;28;20049;-60
2023/10/18 04:32:05;;;;;;;22.25;13.82;;;;;;;4.28;100.00;101004.31;5052330;28;20068;-61
2023/10/18 04:34:39;;;;;;;;;;;;;;;4.28;100.00;100994.78;5047589;28;20535;-60
2023/10/18 04:37:12;;;;;;;20.00;12.23;;;;;;;4.27;100.00;100989.59;5050097;28;19928;-60
2023/10/18 04:39:41;;;;;;;19.95;12.45;;;;;;;4.26;100.00;100987.91;5051999;28;20133;-60
2023/10/18 04:42:17;;;;;;;19.88;11.90;;;;;;;4.22;100.00;100988.00;5050637;28;20473;-59
2023/10/18 04:44:49;;;;;;;20.02;12.48;;;;;;;4.23;100.00;100984.50;5051879;28;20033;-60
2023/10/18 04:47:18;;;;;;;20.52;12.80;;;;;;;4.26;100.00;100983.56;5050082;28;20114;-60
2023/10/18 04:50:00;;;;;;;19.73;12.52;;;;;;;4.27;100.00;100976.56;5046847;28;20526;-60
2023/10/18 04:52:40;;;;;;;19.38;11.88;;;;;;;4.25;100.00;100979.25;5050242;28;20107;-60
2023/10/18 04:55:13;;;;;;;21.90;13.13;;;;;;;4.22;100.00;100964.56;5051913;28;20488;-60
2023/10/18 04:57:42;;;;;;;20.05;12.82;;;;;;;4.21;100.00;100964.63;5050571;28;20053;-60
2023/10/18 05:00:24;;;;;;;21.88;12.50;;;;;;;4.20;100.00;100969.00;5051701;28;20044;-59
2023/10/18 05:02:59;;;;;;;20.38;12.40;;;;;;;4.27;100.00;100958.34;5051734;28;20064;-60
2023/10/18 05:05:29;;;;;;;18.90;12.15;;;;;;;4.25;100.00;100958.41;5051689;28;20235;-60
2023/10/18 05:07:56;;;;;;;19.92;13.00;;;;;;;4.23;100.00;100963.69;5051752;28;20060;-59
2023/10/18 05:10:28;;;;;;;19.35;12.65;;;;;;;4.23;100.00;100962.84;5051690;28;20186;-60
2023/10/18 05:13:08;;;;;;;20.55;12.05;;;;;;;4.26;100.00;100951.47;5051571;28;20041;-60
2023/10/18 05:15:38;;;;;;;20.05;11.77;;;;;;;4.24;100.00;100946.31;5051431;28;20045;-59
2023/10/18 05:18:15;;;;;;;19.20;12.18;;;;;;;4.25;100.00;100948.00;5051412;28;20041;-59
2023/10/18 05:20:46;;;;;;;20.35;11.82;;;;;;;4.21;100.00;100947.28;5051490;28;20053;-59
2023/10/18 05:23:21;;;;;;;19.17;12.05;;;;;;;4.24;100.00;100951.53;5050691;28;20128;-60
2023/10/18 05:25:56;;;;;;;18.10;11.73;;;;;;;4.21;100.00;100944.69;5051594;28;20412;-60
2023/10/18 05:28:28;;;;;;;20.63;12.77;;;;;;;4.18;100.00;100939.56;5051436;28;20504;-60
2023/10/18 05:33:54;;;;;;;17.73;12.25;;;;;;;4.21;100.00;100936.00;5047014;28;20081;-60
2023/10/18 05:36:35;;;;;;;22.42;12.18;;;;;;;4.22;100.00;100929.91;5048639;28;20433;-59
2023/10/18 05:39:19;;;;;;;21.30;12.23;;;;;;;4.18;100.00;100925.72;5050480;28;20072;-59
2023/10/18 05:41:49;;;;;;;21.05;12.23;;;;;;;4.19;100.00;100920.44;5051517;28;20488;-60
2023/10/18 05:44:17;;;;;;;23.08;13.82;;;;;;;4.17;100.00;100918.78;5051266;28;20044;-60
2023/10/18 05:46:50;;;;;;;23.00;11.93;;;;;;;4.17;100.00;100917.06;5051267;28;20122;-59
2023/10/18 05:49:23;;;;;;;;;;;;;;;4.17;100.00;100911.84;5051763;28;20183;-59
2023/10/18 05:52:15;;;;;;;20.45;11.48;;;;;;;4.11;100.00;100909.47;5051168;28;19928;-60
2023/10/18 05:54:44;;;;;;;18.88;11.73;;;;;;;4.14;100.00;100904.13;5050912;28;20045;-60
2023/10/18 05:57:16;;;;;;;20.42;12.48;;;;;;;4.10;100.00;100902.56;5050754;28;20412;-59
2023/10/18 05:59:46;;;;;;;19.70;12.40;;;;;;;4.12;100.00;100903.38;5051144;28;20044;-59
2023/10/18 06:02:22;;;;;;;19.33;12.20;;;;;;;4.06;100.00;100895.75;5051245;28;21015;-60
2023/10/18 06:04:54;;;;;;;19.70;12.75;;;;;;;4.06;100.00;100903.56;5051245;28;20565;-58
2023/10/18 06:07:26;;;;;;;21.73;13.52;;;;;;;4.04;100.00;100900.19;5051254;28;20476;-59
2023/10/18 06:10:00;;;;;;;20.48;13.15;;;;;;;4.02;100.00;100900.25;5051206;28;20495;-59
2023/10/18 06:12:30;;;;;;;19.30;13.13;;;;;;;4.01;100.00;100897.72;5050821;28;20037;-60
2023/10/18 06:15:10;;;;;;;19.10;12.75;;;;;;;4.00;100.00;100903.81;5050859;28;20049;-60
2023/10/18 06:17:53;;;;;;;20.48;12.52;;;;;;;4.02;100.00;100900.25;5050915;28;20049;-60
2023/10/18 06:20:28;;;;;;;21.92;13.13;;;;;;;3.99;100.00;100896.91;5051153;28;20055;-60
2023/10/18 06:23:28;;;;;;;21.75;12.40;;;;;;;4.03;100.00;100894.13;5051004;28;20053;-60
2023/10/18 06:25:57;;;;;;;20.45;12.50;;;;;;;4.03;100.00;100899.31;5050889;28;20047;-61
2023/10/18 06:28:26;;;;;;;20.75;12.57;;;;;;;4.06;100.00;100900.97;5050905;28;20051;-60
2023/10/18 06:30:56;;;;;;;20.95;13.00;;;;;;;4.08;100.00;100901.78;5049834;28;20484;-59
2023/10/18 06:33:35;;;;;;;20.10;12.57;;;;;;;4.07;100.00;100905.28;5051077;28;20049;-60
2023/10/18 06:36:11;;;;;;;21.10;12.32;;;;;;;4.12;100.00;100895.56;5054369;28;20048;-60
2023/10/18 06:38:43;;;;;;;19.92;13.02;;;;;;;4.09;100.00;100893.06;5054504;28;20045;-60
2023/10/18 06:41:18;;;;;;;20.13;12.18;;;;;;;4.12;100.00;100892.94;5052052;28;20107;-59
2023/10/18 06:43:48;;;;;;;22.00;12.70;;;;;;;4.13;100.00;100889.44;5050700;28;20053;-60
2023/10/18 06:46:26;;;;;;;18.55;12.45;;;;;;;4.15;100.00;100892.81;5054313;28;20045;-59
2023/10/18 06:48:58;;;;;;;21.33;12.65;;;;;;;4.16;100.00;100888.44;5054103;28;20064;-60
2023/10/18 06:51:42;;;;;;;21.15;13.38;;;;;;;4.20;100.00;100882.25;5054191;28;20060;-60
2023/10/18 06:54:14;;;;;;;17.98;12.07;;;;;;;4.31;100.00;100879.22;5054195;28;20047;-60
2023/10/18 06:56:46;;;;;;;21.20;12.70;;;;;;;4.26;100.00;100871.59;5054113;28;20041;-59
2023/10/18 06:59:14;;;;;;;18.63;12.17;;;;;;;4.32;100.00;100867.91;5053936;28;20468;-59
2023/10/18 07:01:54;;;;;;;19.77;11.27;;;;;;;4.36;100.00;100865.13;5054051;28;20063;-60
2023/10/18 07:04:28;;;;;;;20.98;12.05;;;;;;;4.35;100.00;100857.34;5053975;28;20050;-57
2023/10/18 07:06:57;;;;;;;19.48;12.52;;;;;;;4.36;100.00;100852.13;5050387;28;20048;-58
2023/10/18 07:09:31;;;;;;;19.27;12.27;;;;;;;4.42;100.00;100843.22;5052008;28;20060;-58
2023/10/18 07:12:03;;;;;;;16.58;11.38;;;;;;;4.51;100.00;100842.84;5053762;28;20052;-58
2023/10/18 07:14:32;;;;;;;19.90;12.00;;;;;;;4.53;100.00;100835.81;5053720;28;20055;-59
2023/10/18 07:17:04;;;;;;;20.63;11.52;;;;;;;4.61;100.00;100832.03;5053086;28;20051;-58
2023/10/18 07:19:41;;;;;;;23.30;12.93;;;;;;;4.66;100.00;100835.31;5048795;28;20037;-57
2023/10/18 07:22:17;;;;;;;18.05;11.75;;;;;;;4.68;100.00;100831.75;5051549;28;20052;-58
2023/10/18 07:24:53;;;;;;;25.38;13.45;;;;;;;4.70;100.00;100826.47;5051569;28;20143;-60
2023/10/18 07:27:29;;;;;;;19.30;11.75;;;;;;;4.72;100.00;100822.06;5050746;28;20041;-58
2023/10/18 07:29:59;;;;;;;22.08;12.00;;;;;;;4.78;100.00;100821.78;5053828;28;20056;-59
2023/10/18 07:32:31;;;;;;;20.40;10.82;;;;;;;4.85;100.00;100815.44;5053365;28;20055;-57
2023/10/18 07:35:02;;;;;;;21.42;11.80;;;;;;;4.92;100.00;100821.19;5053389;28;20055;-58
2023/10/18 07:37:41;;;;;;;17.80;11.80;;;;;;;4.94;100.00;100810.75;5053531;28;20072;-58
2023/10/18 07:40:10;;;;;;;18.45;11.98;;;;;;;4.97;100.00;100808.84;5052977;28;20124;-59
2023/10/18 07:42:43;;;;;;;17.17;10.88;;;;;;;5.04;100.00;100807.66;5049947;28;20041;-60
2023/10/18 07:45:14;;;;;;;18.13;11.38;;;;;;;5.08;100.00;100797.94;5049254;28;20045;-59
2023/10/18 07:47:43;;;;;;;19.50;11.63;;;;;;;5.15;100.00;100791.53;5049138;28;20041;-58
2023/10/18 07:52:58;;;;;;;14.90;10.57;;;;;;;5.21;100.00;100778.25;5049112;28;20102;-58
2023/10/18 07:55:28;;;;;;;17.25;11.25;;;;;;;5.33;100.00;100776.03;5051678;28;20561;-59
2023/10/18 07:57:56;;;;;;;16.95;10.18;;;;;;;5.37;100.00;100781.06;5053096;28;20056;-57
2023/10/18 08:00:26;;;;;;;19.35;10.63;;;;;;;5.38;100.00;100771.44;5053128;28;20048;-58
2023/10/18 08:02:53;;;;;;;17.17;10.52;;;;;;;5.44;100.00;100768.59;5053016;28;20060;-57
2023/10/18 08:05:30;;;;;;;15.60;10.70;;;;;;;5.48;100.00;100774.50;5052776;28;20048;-57
2023/10/18 08:08:08;;;;;;;16.15;10.63;;;;;;;5.53;100.00;100778.56;5052837;28;20447;-59
2023/10/18 08:10:38;;;;;;;15.32;10.60;;;;;;;5.58;100.00;100765.34;5052644;28;20061;-59
2023/10/18 08:13:10;;;;;;;15.25;10.85;;;;;;;5.66;100.00;100770.19;5052683;28;20063;-58
2023/10/18 08:15:50;;;;;;;16.77;10.57;;;;;;;5.72;100.00;100764.72;5052036;28;20041;-58
2023/10/18 08:18:21;;;;;;;17.10;10.50;;;;;;;5.79;100.00;100771.31;5049707;28;20120;-59
2023/10/18 08:21:06;;;;;;;16.05;10.82;;;;;;;5.85;100.00;100768.44;5049738;28;20119;-60
2023/10/18 08:23:36;;;;;;;16.10;10.73;;;;;;;5.90;100.00;100756.03;5052364;28;20053;-60
2023/10/18 08:26:04;;;;;;;17.65;10.23;;;;;;;6.04;100.00;100767.59;5051872;28;20049;-59
2023/10/18 08:28:45;;;;;;;20.25;11.05;;;;;;;6.14;100.00;100762.81;5049341;28;20496;-50
2023/10/18 08:31:16;;;;;;;17.00;10.15;;;;;;;6.23;100.00;100755.38;5050119;28;20498;-51
2023/10/18 08:33:45;;;;;;;16.10;10.40;;;;;;;6.29;100.00;100751.63;5052054;28;20048;-51
2023/10/18 08:36:18;;;;;;;14.98;9.68;;;;;;;6.40;100.00;100746.69;5052050;28;20055;-50
2023/10/18 08:38:46;;;;;;;17.10;10.23;;;;;;;6.48;100.00;100743.72;5052078;28;20140;-49
2023/10/18 08:41:16;;;;;;;15.70;9.30;;;;;;;6.57;100.00;100738.03;5052058;28;20099;-50
2023/10/18 08:44:06;;;;;;;15.30;9.77;;;;;;;6.63;100.00;100741.28;5052113;28;20045;-51
2023/10/18 08:46:41;;;;;;;14.02;9.57;;;;;;;6.73;100.00;100739.88;5052103;28;20037;-51
2023/10/18 08:49:12;;;;;;;16.33;9.52;;;;;;;6.77;100.00;100738.78;5047226;28;20049;-51
2023/10/18 08:51:46;;;;;;;14.52;9.98;;;;;;;6.84;100.00;100741.94;5049651;28;20488;-52
2023/10/18 08:54:20;;;;;;;15.10;9.35;;;;;;;6.91;100.00;100738.09;5051977;28;20404;-51
2023/10/18 08:56:51;;;;;;;14.10;9.40;;;;;;;7.03;100.00;100732.22;5051702;28;20049;-53
2023/10/18 08:59:20;;;;;;;14.57;9.35;;;;;;;7.20;100.00;100727.88;5051660;28;20095;-52
2023/10/18 09:02:09;;;;;;;13.38;8.63;;;;;;;7.26;100.00;100732.78;5051838;28;20056;-52
2023/10/18 09:04:36;;;;;;;13.18;9.27;;;;;;;7.42;100.00;100724.97;5051761;28;20515;-54
2023/10/18 09:07:18;;;;;;;15.48;9.45;;;;;;;7.55;100.00;100725.16;5051682;28;20048;-50
2023/10/18 09:09:54;;;;;;;15.67;9.80;;;;;;;7.68;100.00;100727.94;5051581;28;20059;-53
2023/10/18 09:12:36;;;;;;;15.90;9.20;;;;;;;7.78;100.00;100722.13;5050290;28;20107;-53
2023/10/18 09:17:47;;;;;;;;;;;;;;;8.03;100.00;100710.28;5052544;28;20056;-51
2023/10/18 09:20:16;;;;;;;12.70;7.90;;;;;;;8.17;100.00;100712.09;5051822;28;19924;-53
2023/10/18 09:22:48;;;;;;;12.32;7.95;;;;;;;8.32;100.00;100709.53;5051792;28;20041;-52
2023/10/18 09:25:20;;;;;;;13.32;8.77;;;;;;;8.51;100.00;100704.94;5051354;28;20045;-51
2023/10/18 09:27:48;;;;;;;14.27;8.55;;;;;;;8.68;100.00;100690.81;5051400;28;20410;-52
2023/10/18 09:30:18;;;;;;;12.30;8.55;;;;;;;8.80;100.00;100697.13;5049770;28;20049;-49
2023/10/18 09:32:49;;;;;;;12.23;7.85;;;;;;;8.96;100.00;100694.44;5050987;28;20953;-50
2023/10/18 09:35:26;;;;;;;12.00;8.07;;;;;;;9.14;100.00;100687.22;5046946;28;20053;-51
2023/10/18 09:38:03;;;;;;;13.27;7.90;;;;;;;9.34;100.00;100688.59;5049720;28;20055;-52
2023/10/18 09:40:31;;;;;;;11.57;7.25;;;;;;;9.44;100.00;100688.88;5050420;28;20502;-50
2023/10/18 09:43:00;;;;;;;11.18;6.93;;;;;;;9.57;100.00;100675.78;5051424;28;20098;-54
2023/10/18 09:45:29;;;;;;;11.07;6.95;;;;;;;9.76;100.00;100676.31;5051520;28;20076;-52
2023/10/18 09:48:01;;;;;;;11.60;7.18;;;;;;;9.89;100.00;100678.16;5050167;28;20475;-52
2023/10/18 09:50:31;;;;;;;10.93;7.03;;;;;;;9.99;100.00;100673.97;5047056;28;20056;-51
2023/10/18 09:53:03;;;;;;;13.00;7.00;;;;;;;9.95;100.00;100665.47;5050482;28;20457;-50
2023/10/18 09:55:32;;;;;;;11.85;7.13;;;;;;;10.02;100.00;100665.03;5051304;28;20045;-50
2023/10/18 09:58:04;;;;;;;11.88;7.43;;;;;;;9.95;100.00;100662.84;5051385;28;20442;-52
2023/10/18 10:00:40;;;;;;;10.15;6.50;;;;;;;9.96;100.00;100672.38;5051338;28;20053;-53
2023/10/18 10:03:10;;;;;;;10.35;6.00;;;;;;;9.93;100.00;100658.63;5051308;28;20067;-51
2023/10/18 10:05:44;;;;;;;10.02;6.65;;;;;;;10.14;100.00;100658.97;5049875;28;20068;-50
2023/10/18 10:08:14;;;;;;;11.23;6.57;;;;;;;10.14;100.00;100653.72;5050752;28;20500;-51
2023/10/18 10:10:46;;;;;;;12.40;7.10;;;;;;;10.18;100.00;100651.75;5054150;28;20045;-53
2023/10/18 10:13:27;;;;;;;10.10;6.70;;;;;;;10.25;100.00;100637.25;5054820;28;20115;-52
2023/10/18 10:16:03;;;;;;;12.13;6.72;;;;;;;10.30;100.00;100633.34;5053552;28;20083;-51
2023/10/18 10:18:35;;;;;;;10.90;6.43;;;;;;;10.32;100.00;100630.63;5054836;28;20053;-53
2023/10/18 10:21:07;;;;;;;10.80;6.43;;;;;;;10.45;100.00;100622.78;5054958;28;20079;-51
2023/10/18 10:23:38;;;;;;;11.65;6.85;;;;;;;10.54;100.00;100614.28;5054708;28;20425;-52
2023/10/18 10:26:15;;;;;;;15.43;7.53;;;;;;;10.72;100.00;100613.97;5054632;28;20041;-54
2023/10/18 10:31:51;;;;;;;9.40;6.65;;;;;;;10.89;100.00;100608.34;5050694;28;20136;-53
2023/10/18 10:34:32;;;;;;;11.95;6.97;;;;;;;10.99;100.00;100606.75;5068631;28;20057;-53
2023/10/18 10:37:07;;;;;;;10.63;6.50;;;;;;;11.24;100.00;100601.53;5054999;28;20107;-50
2023/10/18 10:39:44;;;;;;;10.18;6.55;;;;;;;11.44;100.00;100593.03;5054682;28;20404;-51
2023/10/18 10:42:28;;;;;;;11.70;6.72;;;;;;;11.79;100.00;100594.03;5054440;28;20052;-53
2023/10/18 10:45:02;;;;;;;10.60;6.60;;;;;;;12.08;100.00;100594.53;5054173;28;20056;-54
2023/10/18 10:47:33;;;;;;;11.93;7.07;;;;;;;12.23;100.00;100581.13;5051561;28;20072;-53
2023/10/18 10:50:07;;;;;;;8.85;6.10;;;;;;;12.14;100.00;100570.31;5049850;28;20526;-54
2023/10/18 10:52:40;;;;;;;10.40;6.28;;;;;;;12.57;100.00;100560.94;5053221;28;20052;-53
2023/10/18 10:55:22;;;;;;;11.98;6.55;;;;;;;12.89;100.00;100557.53;5049546;28;20060;-54
2023/10/18 10:57:51;;;;;;;12.40;6.72;;;;;;;12.99;100.00;100552.34;5052738;28;20048;-54
2023/10/18 11:00:38;;;;;;;8.70;5.95;;;;;;;13.00;100.00;100544.31;5050508;28;20057;-52
2023/10/18 11:03:29;;;;;;;10.45;6.22;;;;;;;13.23;100.00;100540.81;5052322;28;20048;-51
2023/10/18 11:05:59;;;;;;;9.30;6.00;;;;;;;13.49;100.00;100533.41;5053771;28;20542;-53
2023/10/18 11:08:28;;;;;;;8.85;6.20;;;;;;;13.75;100.00;100525.94;5053843;28;20041;-52
2023/10/18 11:10:58;;;;;;;12.65;6.70;;;;;;;13.73;100.00;100525.25;5053905;28;20500;-50
2023/10/18 11:13:30;;;;;;;13.25;6.55;;;;;;;13.86;100.00;100509.19;5053971;28;20053;-56
2023/10/18 11:16:00;;;;;;;9.55;6.25;;;;;;;14.11;100.00;100499.19;5051789;28;20115;-52
2023/10/18 11:18:34;;;;;;;9.13;6.35;;;;;;;14.13;100.00;100497.25;5050684;28;20786;-54
2023/10/18 11:21:18;;;;;;;11.30;6.15;;;;;;;14.23;100.00;100498.13;5047994;28;20049;-51
2023/10/18 11:23:50;;;;;;;11.77;6.30;;;;;;;14.31;100.00;100476.31;5050558;28;20148;-51
2023/10/18 11:26:24;;;;;;;9.48;6.00;;;;;;;14.28;100.00;100479.22;5050562;28;20063;-54
2023/10/18 11:28:56;;;;;;;11.05;6.05;;;;;;;14.58;100.00;100467.78;5052210;28;20463;-53
2023/10/18 11:31:28;;;;;;;;;;;;;;;14.67;100.00;100466.13;5053885;28;20131;-51
2023/10/18 11:34:05;;;;;;;9.32;6.13;;;;;;;14.44;100.00;100461.03;5048214;28;20061;-53
2023/10/18 11:36:34;;;;;;;10.23;6.07;;;;;;;14.59;100.00;100452.72;5052173;28;20095;-50
2023/10/18 11:39:17;;;;;;;11.07;6.43;;;;;;;14.66;100.00;100446.78;5051174;28;20508;-52
2023/10/18 11:41:52;;;;;;;11.60;6.38;;;;;;;14.48;100.00;100436.00;5048944;28;20476;-49
2023/10/18 11:44:30;;;;;;;8.88;5.38;;;;;;;14.51;100.00;100430.41;5050429;28;20068;-51
2023/10/18 11:47:08;;;;;;;9.70;6.15;;;;;;;14.58;100.00;100432.53;5051489;28;20060;-53
2023/10/18 11:49:38;;;;;;;10.60;5.50;;;;;;;14.35;100.00;100422.16;5048395;28;20084;-54